Time;durP1;ratioP1;P1;durP2;ratioP2;P2;SDS_P1;SDS_P2;PMS_P1;PMS_P2;Temp;Humidity;BMP_temperature;BMP_pressure;BME280_temperature;BME280_humidity;BME280_pressure;Samples;Min_cycle;Max_cycle;Signal;HPM_P1;HPM_P2
2022/08/03 00:00:16;;;;;;;5.57;5.15;;;;;;;22.32;100.00;33208.13;5092437;28;20591;-62
2022/08/03 00:02:43;;;;;;;5.80;5.40;;;;;;;22.40;100.00;46394.72;5092156;28;20184;-62
2022/08/03 00:05:10;;;;;;;4.82;4.72;;;;;;;22.36;100.00;52339.91;5092332;28;20188;-62
2022/08/03 00:07:37;;;;;;;5.35;5.15;;;;;;;22.55;100.00;54011.81;5091851;28;20195;-62
2022/08/03 00:10:05;;;;;;;5.05;4.75;;;;;;;22.56;100.00;61967.34;5091989;28;20234;-61
2022/08/03 00:12:32;;;;;;;4.80;4.53;;;;;;;22.54;100.00;65948.53;5091633;28;20275;-62
2022/08/03 00:14:59;;;;;;;7.25;6.95;;;;;;;22.65;100.00;35202.25;5092198;28;20237;-62
2022/08/03 00:17:27;;;;;;;7.15;6.85;;;;;;;22.70;100.00;24029.25;5091856;28;20188;-62
2022/08/03 00:19:54;;;;;;;9.23;8.30;;;;;;;22.56;100.00;19433.16;5091776;28;20180;-62
2022/08/03 00:22:21;;;;;;;7.95;7.35;;;;;;;22.64;100.00;15833.63;5091989;28;20184;-62
2022/08/03 00:24:48;;;;;;;6.72;6.45;;;;;;;22.60;100.00;21728.84;5091631;28;20218;-62
2022/08/03 00:27:15;;;;;;;8.15;7.43;;;;;;;22.48;100.00;18120.09;5091570;28;20184;-62
2022/08/03 00:29:42;;;;;;;7.32;6.78;;;;;;;22.56;100.00;17795.22;5091496;28;20276;-62
2022/08/03 00:32:09;;;;;;;7.18;6.78;;;;;;;22.45;100.00;16482.22;5091872;28;20180;-62
2022/08/03 00:34:37;;;;;;;7.18;6.55;;;;;;;22.36;100.00;22702.47;5091908;28;20218;-61
2022/08/03 00:37:04;;;;;;;7.00;6.57;;;;;;;22.35;100.00;12881.25;5091787;28;20198;-62
2022/08/03 00:39:30;;;;;;;7.15;6.65;;;;;;;22.28;100.00;7654.22;5091810;28;20180;-62
2022/08/03 00:41:57;;;;;;;6.97;6.70;;;;;;;22.07;100.00;5367.81;5091697;28;20629;-62
2022/08/03 00:44:26;;;;;;;7.03;6.72;;;;;;;22.09;100.00;5042.13;5091930;28;20196;-61
2022/08/03 00:46:53;;;;;;;7.00;6.60;;;;;;;22.05;100.00;10913.84;5091437;28;20191;-62
2022/08/03 00:49:20;;;;;;;5.93;5.63;;;;;;;22.01;100.00;24326.59;5091377;28;20184;-62
2022/08/03 00:51:48;;;;;;;5.82;5.47;;;;;;;21.94;100.00;30229.19;5091647;28;20721;-62
2022/08/03 00:54:16;;;;;;;5.05;4.95;;;;;;;22.07;100.00;40433.22;5091345;28;20206;-62
2022/08/03 00:56:44;;;;;;;4.63;4.53;;;;;;;22.18;100.00;46047.66;5091636;28;20215;-62
2022/08/03 00:59:10;;;;;;;4.70;4.60;;;;;;;22.04;100.00;52642.47;5091615;28;20206;-62
2022/08/03 01:01:37;;;;;;;4.93;4.72;;;;;;;22.30;100.00;46717.59;5091736;28;20295;-62
2022/08/03 01:04:04;;;;;;;5.43;5.13;;;;;;;22.35;100.00;46060.50;5091576;28;20184;-63
2022/08/03 01:06:41;;;;;;;5.55;5.15;;;;;;;22.30;100.00;47047.78;5091544;28;20630;-61
2022/08/03 01:09:16;;;;;;;5.45;5.05;;;;;;;22.28;100.00;54648.94;5091370;28;20188;-62
2022/08/03 01:11:49;;;;;;;5.38;5.18;;;;;;;22.21;100.00;47370.59;5091292;28;20207;-62
2022/08/03 01:14:23;;;;;;;6.13;5.22;;;;;;;22.13;100.00;41756.03;5090104;28;20243;-62
2022/08/03 01:16:56;;;;;;;4.53;4.43;;;;;;;22.20;100.00;42750.22;5091299;28;20275;-62
2022/08/03 01:19:45;;;;;;;5.22;5.03;;;;;;;22.20;100.00;38136.69;5091418;28;20653;-62
2022/08/03 01:22:28;;;;;;;5.45;5.25;;;;;;;22.04;100.00;37797.03;5090085;28;20187;-62
2022/08/03 01:25:06;;;;;;;5.35;5.15;;;;;;;22.09;100.00;35167.53;5093267;28;20184;-61
2022/08/03 01:27:54;;;;;;;5.28;4.97;;;;;;;22.13;100.00;38790.88;5094128;28;20247;-62
2022/08/03 01:30:27;;;;;;;4.90;4.70;;;;;;;22.09;100.00;40105.22;5094932;28;20571;-61
2022/08/03 01:32:58;;;;;;;5.22;4.95;;;;;;;21.97;100.00;38450.72;5094917;28;20214;-61
2022/08/03 01:35:29;;;;;;;4.60;4.40;;;;;;;21.95;100.00;45698.88;5094628;28;20195;-62
2022/08/03 01:38:00;;;;;;;4.88;4.55;;;;;;;21.93;100.00;55608.84;5094498;28;20218;-61
2022/08/03 01:40:30;;;;;;;4.82;4.43;;;;;;;21.94;100.00;58588.84;5094875;28;20627;-62
2022/08/03 01:43:01;;;;;;;5.18;4.97;;;;;;;21.94;100.00;55940.66;5094645;28;20619;-62
2022/08/03 01:45:30;;;;;;;4.82;4.43;;;;;;;21.82;100.00;59570.66;5094438;28;20183;-62
2022/08/03 01:47:59;;;;;;;4.70;4.60;;;;;;;21.78;100.00;62216.38;5094272;28;20184;-62
2022/08/03 01:50:30;;;;;;;4.75;4.45;;;;;;;21.79;100.00;42390.00;5094205;28;20300;-62
2022/08/03 01:52:58;;;;;;;8.15;4.97;;;;;;;21.79;100.00;44037.88;5094530;28;20215;-61
2022/08/03 01:55:27;;;;;;;4.97;4.88;;;;;;;21.79;100.00;56257.50;5094115;28;20198;-62
2022/08/03 01:57:55;;;;;;;5.63;5.15;;;;;;;21.79;100.00;59898.78;5094072;28;20185;-62
2022/08/03 02:00:23;;;;;;;5.40;5.20;;;;;;;21.78;100.00;58572.72;5094125;28;20188;-62
2022/08/03 02:02:54;;;;;;;5.07;4.88;;;;;;;21.75;100.00;58569.69;5093981;28;20202;-62
2022/08/03 02:05:21;;;;;;;5.40;5.20;;;;;;;21.75;100.00;55261.28;5093979;28;20192;-62
2022/08/03 02:07:51;;;;;;;5.10;4.82;;;;;;;21.78;100.00;55594.44;5094356;28;20520;-61
2022/08/03 02:10:21;;;;;;;5.15;4.75;;;;;;;21.78;100.00;53610.38;5094317;28;20634;-62
2022/08/03 02:12:50;;;;;;;5.68;5.30;;;;;;;21.75;100.00;46673.25;5093683;28;20188;-61
2022/08/03 02:15:19;;;;;;;5.45;4.70;;;;;;;21.58;100.00;38095.25;5092891;28;20210;-63
2022/08/03 02:17:47;;;;;;;5.50;5.30;;;;;;;21.62;100.00;39414.09;5093833;28;20192;-63
2022/08/03 02:20:16;;;;;;;5.53;5.22;;;;;;;21.55;100.00;37764.63;5093679;28;20226;-62
2022/08/03 02:22:44;;;;;;;5.53;5.32;;;;;;;21.52;100.00;38091.19;5093648;28;20188;-62
2022/08/03 02:25:13;;;;;;;5.18;4.97;;;;;;;21.45;100.00;33813.69;5093711;28;20229;-61
2022/08/03 02:27:48;;;;;;;5.25;5.03;;;;;;;21.52;100.00;31519.44;5093809;28;20249;-62
2022/08/03 02:30:15;;;;;;;5.32;5.03;;;;;;;21.53;100.00;31848.31;5093693;28;20549;-61
2022/08/03 02:32:48;;;;;;;5.18;4.88;;;;;;;21.49;100.00;30204.94;5093431;28;20184;-61
2022/08/03 02:35:19;;;;;;;5.13;4.50;;;;;;;21.28;100.00;32819.00;5093651;28;20188;-61
2022/08/03 02:37:50;;;;;;;4.45;4.35;;;;;;;21.30;100.00;31506.97;5093695;28;20573;-63
2022/08/03 02:40:20;;;;;;;5.20;5.00;;;;;;;21.39;100.00;28231.81;5093479;28;20566;-61
2022/08/03 02:42:49;;;;;;;5.13;4.80;;;;;;;21.42;100.00;27577.59;5093299;28;20191;-62
2022/08/03 02:45:18;;;;;;;5.35;4.95;;;;;;;21.28;100.00;28225.91;5093159;28;20184;-61
2022/08/03 02:47:47;;;;;;;6.30;5.70;;;;;;;21.36;100.00;30854.03;5093242;28;20188;-62
2022/08/03 02:50:18;;;;;;;5.43;5.22;;;;;;;21.22;100.00;27895.03;5093237;28;20694;-62
2022/08/03 02:52:47;;;;;;;5.22;4.80;;;;;;;21.18;100.00;34126.31;5093273;28;20696;-62
2022/08/03 02:55:16;;;;;;;5.15;4.95;;;;;;;21.17;100.00;33469.06;5093249;28;20546;-62
2022/08/03 02:57:44;;;;;;;4.68;4.47;;;;;;;20.99;100.00;23954.16;5092891;28;20180;-63
2022/08/03 03:00:14;;;;;;;5.05;4.75;;;;;;;21.00;100.00;24609.22;5093011;28;20188;-63
2022/08/03 03:02:42;;;;;;;5.68;5.18;;;;;;;20.82;100.00;19042.66;5092722;28;20184;-62
2022/08/03 03:05:10;;;;;;;5.18;4.97;;;;;;;20.96;100.00;25262.31;5092896;28;20191;-61
2022/08/03 03:07:40;;;;;;;5.00;4.70;;;;;;;21.05;100.00;27886.66;5092723;28;20206;-61
2022/08/03 03:10:08;;;;;;;4.80;4.57;;;;;;;20.77;100.00;21328.28;5092708;28;20191;-62
2022/08/03 03:12:37;;;;;;;4.97;4.78;;;;;;;20.91;100.00;20680.03;5092757;28;20739;-62
2022/08/03 03:15:06;;;;;;;5.10;4.72;;;;;;;20.88;100.00;20025.16;5092852;28;20627;-62
2022/08/03 03:17:34;;;;;;;5.28;4.88;;;;;;;20.87;100.00;19044.50;5092796;28;20565;-62
2022/08/03 03:20:01;;;;;;;5.32;4.95;;;;;;;20.92;100.00;23624.06;5092411;28;20184;-62
2022/08/03 03:22:29;;;;;;;5.53;5.13;;;;;;;20.91;100.00;24278.06;5092589;28;20188;-62
2022/08/03 03:24:58;;;;;;;7.35;5.60;;;;;;;20.91;100.00;23623.41;5092812;28;20654;-63
2022/08/03 03:27:26;;;;;;;8.98;5.28;;;;;;;21.02;100.00;23955.50;5092770;28;20560;-62
2022/08/03 03:29:53;;;;;;;8.63;4.78;;;;;;;21.02;100.00;22973.81;5092564;28;20657;-62
2022/08/03 03:32:20;;;;;;;5.90;5.32;;;;;;;21.29;100.00;22985.16;5091045;28;20215;-62
2022/08/03 03:34:47;;;;;;;5.40;4.68;;;;;;;21.85;100.00;52294.66;5092144;28;20184;-61
2022/08/03 03:37:14;;;;;;;4.90;4.45;;;;;;;22.18;100.00;84216.84;5092554;28;20650;-63
2022/08/03 03:39:41;;;;;;;4.43;4.03;;;;;;;22.36;100.00;119813.09;5092424;28;20631;-61
2022/08/03 03:42:10;;;;;;;4.43;4.13;;;;;;;22.39;100.00;134691.97;5092483;28;20188;-63
2022/08/03 03:44:37;;;;;;;4.22;4.13;;;;;;;22.65;100.00;151732.59;5092482;28;20211;-63
2022/08/03 03:47:04;;;;;;;4.80;4.50;;;;;;;22.80;100.00;151770.91;5091800;28;20617;-62
2022/08/03 03:49:31;;;;;;;5.05;4.20;;;;;;;23.46;100.00;151936.84;5092065;28;20191;-62
2022/08/03 03:51:58;;;;;;;5.20;4.78;;;;;;;23.91;100.00;152051.69;5090731;28;20204;-62
2022/08/03 03:54:25;;;;;;;10.57;5.53;;;;;;;23.84;100.00;152033.84;5092281;28;20587;-62
2022/08/03 03:56:52;;;;;;;6.47;4.70;;;;;;;23.90;100.00;152049.13;5091917;28;20184;-61
2022/08/03 03:59:20;;;;;;;7.07;4.25;;;;;;;23.97;100.00;152067.03;5092146;28;20198;-62
2022/08/03 04:01:47;;;;;;;5.70;4.30;;;;;;;24.12;100.00;152104.03;5092291;28;20253;-63
2022/08/03 04:12:32;;;;;;;3.90;3.80;;;;;;;24.93;100.00;152309.72;5091742;28;20349;-62
2022/08/03 04:15:02;;;;;;;4.38;3.97;;;;;;;25.12;100.00;152356.97;5091675;28;20184;-62
2022/08/03 04:17:32;;;;;;;4.40;3.80;;;;;;;25.47;100.00;152446.41;5092030;28;20673;-62
2022/08/03 04:20:03;;;;;;;3.80;3.70;;;;;;;25.63;100.00;152484.84;5091893;28;20274;-63
2022/08/03 04:22:32;;;;;;;4.47;4.00;;;;;;;25.90;100.00;152555.09;5092050;28;20216;-62
2022/08/03 04:25:03;;;;;;;4.70;4.32;;;;;;;26.11;100.00;152606.22;5091643;28;20192;-61
2022/08/03 04:27:34;;;;;;;4.32;4.03;;;;;;;26.35;100.00;152668.91;5092050;28;20698;-61
2022/08/03 04:30:05;;;;;;;4.43;3.97;;;;;;;26.52;100.00;152711.09;5091485;28;20184;-62
2022/08/03 04:32:32;;;;;;;4.00;3.70;;;;;;;26.74;100.00;152766.09;5091996;28;20688;-62
2022/08/03 04:35:00;;;;;;;7.20;4.18;;;;;;;26.94;100.00;152816.06;5091663;28;20188;-62
2022/08/03 04:37:44;;;;;;;4.80;4.60;;;;;;;27.24;100.00;152894.03;5091804;28;20180;-62
2022/08/03 04:40:15;;;;;;;3.70;3.60;;;;;;;27.36;100.00;152922.22;5091768;28;20188;-63
2022/08/03 04:42:43;;;;;;;6.18;4.20;;;;;;;27.38;100.00;152928.59;5091814;28;20184;-63
2022/08/03 04:45:15;;;;;;;4.05;3.78;;;;;;;27.31;100.00;152910.69;5091857;28;20701;-60
2022/08/03 04:47:42;;;;;;;4.28;3.95;;;;;;;27.18;100.00;152878.72;5091383;28;20194;-62
2022/08/03 04:50:11;;;;;;;3.85;3.75;;;;;;;27.01;100.00;152833.94;5091360;28;20191;-63
2022/08/03 04:52:38;;;;;;;4.60;4.20;;;;;;;27.08;100.00;152851.84;5091780;28;20223;-63
2022/08/03 04:55:05;;;;;;;3.63;3.53;;;;;;;27.30;100.00;152908.13;5091888;28;20188;-62
2022/08/03 04:57:32;;;;;;;4.13;4.00;;;;;;;27.43;100.00;152940.13;5091447;28;20187;-63
2022/08/03 04:59:59;;;;;;;4.03;3.83;;;;;;;27.78;100.00;153029.75;5093663;28;20190;-63
2022/08/03 05:02:27;;;;;;;3.90;3.78;;;;;;;27.82;100.00;153038.69;5095581;28;20695;-63
2022/08/03 05:04:54;;;;;;;3.72;3.58;;;;;;;27.99;100.00;153083.50;5095044;28;20180;-62
2022/08/03 05:07:21;;;;;;;9.88;9.15;;;;;;;28.25;100.00;153148.84;5095391;28;20641;-63
2022/08/03 05:09:48;;;;;;;13.25;12.15;;;;;;;28.32;100.00;153165.47;5094395;28;20559;-61
2022/08/03 05:12:15;;;;;;;4.20;4.00;;;;;;;28.32;100.00;153166.75;5094270;28;20670;-63
2022/08/03 05:14:42;;;;;;;3.45;3.25;;;;;;;28.31;100.00;153162.88;5094927;28;20231;-64
2022/08/03 05:17:09;;;;;;;3.67;3.47;;;;;;;28.26;100.00;153151.41;5095139;28;20188;-62
2022/08/03 05:19:37;;;;;;;3.47;3.38;;;;;;;28.11;100.00;153114.25;5094173;28;20677;-62
2022/08/03 05:22:04;;;;;;;3.95;3.65;;;;;;;28.25;100.00;153148.84;5094741;28;20190;-62
2022/08/03 05:24:31;;;;;;;4.60;4.15;;;;;;;28.30;100.00;153160.34;5094790;28;20198;-62
2022/08/03 05:26:57;;;;;;;5.93;4.50;;;;;;;28.29;100.00;153159.06;5094672;28;20184;-63
2022/08/03 05:29:24;;;;;;;4.60;3.60;;;;;;;28.61;100.00;153241.00;5094562;28;20191;-62
2022/08/03 05:31:51;;;;;;;4.47;3.70;;;;;;;28.68;100.00;153256.38;5094649;28;20231;-62
2022/08/03 05:34:18;;;;;;;3.63;3.33;;;;;;;29.06;100.00;153353.75;5094919;28;20184;-62
2022/08/03 05:36:46;;;;;;;3.40;3.30;;;;;;;29.39;100.00;153438.31;5094571;28;20188;-62
2022/08/03 05:39:13;;;;;;;3.25;3.15;;;;;;;29.62;100.00;153494.72;5094842;28;20623;-62
2022/08/03 05:41:40;;;;;;;3.63;3.42;;;;;;;30.43;100.00;153701.03;5093642;28;20627;-63
2022/08/03 05:44:07;;;;;;;4.28;3.50;;;;;;;30.61;100.00;153745.94;5094897;28;20558;-61
2022/08/03 05:46:34;;;;;;;3.28;3.08;;;;;;;30.12;100.00;153621.59;5094347;28;20188;-63
2022/08/03 05:49:01;;;;;;;5.20;3.60;;;;;;;29.70;100.00;153515.19;5094255;28;20195;-63
2022/08/03 05:51:28;;;;;;;2.83;2.72;;;;;;;29.39;100.00;153438.31;5094139;28;20208;-63
2022/08/03 05:53:56;;;;;;;2.15;2.15;;;;;;;29.44;100.00;153451.16;5094068;28;20195;-63
2022/08/03 05:56:26;;;;;;;2.15;2.05;;;;;;;29.27;100.00;153407.53;5094125;28;20279;-62
2022/08/03 05:58:53;;;;;;;2.47;2.38;;;;;;;29.15;100.00;153376.81;5093960;28;20186;-64
2022/08/03 06:01:21;;;;;;;2.90;2.70;;;;;;;29.21;100.00;153392.16;5093963;28;20188;-64
2022/08/03 06:03:49;;;;;;;2.13;2.03;;;;;;;28.99;100.00;153337.06;5093865;28;20190;-64
2022/08/03 06:06:16;;;;;;;2.10;2.00;;;;;;;28.97;100.00;153331.97;5093971;28;20188;-62
2022/08/03 06:08:44;;;;;;;2.25;2.15;;;;;;;29.02;100.00;153343.50;5093906;28;20184;-63
2022/08/03 06:11:13;;;;;;;3.20;1.75;;;;;;;29.16;100.00;153379.34;5093317;28;20188;-65
2022/08/03 06:13:41;;;;;;;2.15;2.00;;;;;;;28.72;100.00;153267.94;5093632;28;20238;-62
2022/08/03 06:16:08;;;;;;;2.88;2.03;;;;;;;28.94;100.00;153323.03;5093993;28;20184;-62
2022/08/03 06:18:35;;;;;;;2.38;2.28;;;;;;;28.83;100.00;153296.09;5093583;28;20184;-63
2022/08/03 06:21:02;;;;;;;4.75;2.13;;;;;;;28.70;100.00;153261.53;5093424;28;20188;-62
2022/08/03 06:23:28;;;;;;;2.40;2.30;;;;;;;28.26;100.00;153151.41;5093523;28;20214;-61
2022/08/03 06:25:58;;;;;;;5.25;2.55;;;;;;;28.26;100.00;153151.41;5093658;28;20653;-63
2022/08/03 06:28:26;;;;;;;9.25;2.80;;;;;;;28.75;100.00;153274.34;5093370;28;20180;-62
2022/08/03 06:30:53;;;;;;;2.47;2.40;;;;;;;29.08;100.00;153358.84;5092333;28;20287;-62
2022/08/03 06:33:20;;;;;;;3.38;2.50;;;;;;;29.61;100.00;153492.13;5093210;28;20219;-62
2022/08/03 06:35:47;;;;;;;8.35;2.60;;;;;;;29.50;99.83;153466.50;5093109;28;20279;-63
2022/08/03 06:38:14;;;;;;;3.25;2.42;;;;;;;29.73;97.72;153524.16;5093608;28;20313;-63
2022/08/03 06:40:41;;;;;;;2.28;2.17;;;;;;;30.02;98.34;153595.94;5093140;28;20214;-62
2022/08/03 06:43:08;;;;;;;2.00;2.00;;;;;;;30.38;93.34;153688.25;5093180;28;20196;-62
2022/08/03 06:45:36;;;;;;;2.33;2.22;;;;;;;30.56;95.87;153733.13;5093283;28;20188;-62
2022/08/03 06:48:06;;;;;;;2.28;2.17;;;;;;;30.47;91.57;153711.34;5093352;28;20216;-63
2022/08/03 06:50:34;;;;;;;2.25;2.15;;;;;;;30.09;92.90;153615.16;5093546;28;20188;-62
2022/08/03 06:53:02;;;;;;;2.10;2.10;;;;;;;30.15;91.03;153630.56;5093118;28;20212;-63
2022/08/03 06:55:29;;;;;;;2.00;1.90;;;;;;;30.69;89.17;153766.47;5093261;28;20184;-62
2022/08/03 06:57:55;;;;;;;2.15;2.10;;;;;;;31.29;85.46;153920.38;5092767;28;20188;-62
2022/08/03 07:00:23;;;;;;;2.20;2.10;;;;;;;30.90;85.53;153820.31;5093230;28;20623;-62
2022/08/03 07:02:52;;;;;;;2.17;2.08;;;;;;;31.50;82.18;153971.69;5091571;28;20655;-61
2022/08/03 07:05:19;;;;;;;4.60;2.35;;;;;;;31.70;82.51;154023.03;5093597;28;20271;-63
2022/08/03 07:07:46;;;;;;;1.95;1.83;;;;;;;31.38;80.60;153940.91;5092915;28;20194;-62
2022/08/03 07:10:13;;;;;;;3.10;3.00;;;;;;;31.54;79.32;153983.28;5092647;28;20191;-62
2022/08/03 07:12:42;;;;;;;4.20;1.88;;;;;;;30.75;82.63;153781.88;5092529;28;20204;-62
2022/08/03 07:15:10;;;;;;;3.30;1.90;;;;;;;29.53;84.01;153472.94;5092630;28;20229;-62
2022/08/03 07:17:37;;;;;;;3.13;1.90;;;;;;;29.74;86.88;153526.75;5093037;28;20707;-62
2022/08/03 07:20:07;;;;;;;2.00;1.90;;;;;;;30.09;86.13;153615.16;5092893;28;20211;-63
2022/08/03 07:22:34;;;;;;;1.60;1.60;;;;;;;30.49;83.81;153715.19;5091699;28;20180;-62
2022/08/03 07:59:39;;;;;;;1.73;1.63;;;;;;;31.42;66.40;153951.16;5091878;28;20661;-63
2022/08/03 08:02:07;;;;;;;1.40;1.40;;;;;;;31.35;63.97;153933.22;5091911;28;20566;-62
2022/08/03 08:04:35;;;;;;;2.00;1.90;;;;;;;30.48;67.90;153712.63;5092023;28;20188;-62
2022/08/03 08:07:02;;;;;;;2.25;1.88;;;;;;;30.55;66.52;153730.59;5091827;28;20192;-63
2022/08/03 08:09:29;;;;;;;3.38;1.92;;;;;;;30.28;68.80;153663.88;5091776;28;20275;-62
2022/08/03 08:11:56;;;;;;;1.80;1.70;;;;;;;29.72;71.92;153521.59;5091683;28;20191;-62
2022/08/03 08:14:23;;;;;;;1.67;1.67;;;;;;;29.89;74.12;153563.91;5091588;28;20227;-63
2022/08/03 08:16:52;;;;;;;1.98;1.90;;;;;;;29.73;74.59;153524.16;5091662;28;20188;-62
2022/08/03 08:19:18;;;;;;;1.60;1.60;;;;;;;29.41;75.35;153442.13;5091899;28;20286;-62
2022/08/03 08:21:45;;;;;;;1.60;1.50;;;;;;;29.87;74.38;153558.81;5091700;28;20191;-62
2022/08/03 08:24:14;;;;;;;2.42;1.60;;;;;;;30.61;72.21;153745.94;5091705;28;20188;-62
2022/08/03 08:26:41;;;;;;;2.00;1.90;;;;;;;30.64;65.08;153754.91;5092082;28;20187;-62
2022/08/03 08:29:08;;;;;;;1.73;1.63;;;;;;;30.33;65.37;153676.72;5091710;28;20184;-62
2022/08/03 08:31:35;;;;;;;1.50;1.40;;;;;;;30.48;71.64;153713.91;5091691;28;20188;-62
2022/08/03 08:34:06;;;;;;;1.55;1.55;;;;;;;31.26;65.07;153911.41;5094177;28;20211;-62
2022/08/03 08:36:33;;;;;;;1.88;1.77;;;;;;;30.57;63.91;153735.69;5096328;28;20526;-62
2022/08/03 08:39:00;;;;;;;1.60;1.50;;;;;;;30.68;63.75;153763.94;5095557;28;20642;-62
2022/08/03 08:41:27;;;;;;;1.60;1.60;;;;;;;30.50;68.34;153717.78;5095546;28;20185;-63
2022/08/03 08:43:55;;;;;;;2.00;1.70;;;;;;;29.91;68.96;153569.06;5095833;28;20188;-62
2022/08/03 08:46:22;;;;;;;2.40;1.50;;;;;;;30.00;72.60;153592.13;5095899;28;20231;-62
2022/08/03 08:48:50;;;;;;;1.70;1.60;;;;;;;30.63;68.39;153751.09;5094210;28;20211;-61
2022/08/03 08:51:20;;;;;;;1.50;1.50;;;;;;;30.67;69.72;153761.34;5095478;28;20263;-62
2022/08/03 08:53:49;;;;;;;1.80;1.70;;;;;;;31.38;64.31;153940.91;5095533;28;20199;-62
2022/08/03 08:56:17;;;;;;;2.08;1.55;;;;;;;31.23;60.15;153904.97;5095246;28;20184;-62
2022/08/03 08:58:49;;;;;;;2.33;1.40;;;;;;;31.86;64.45;154064.13;5095334;28;20184;-63
2022/08/03 09:01:18;;;;;;;1.55;1.55;;;;;;;32.32;56.41;154180.91;5095257;28;20191;-62
2022/08/03 09:03:47;;;;;;;2.15;1.65;;;;;;;32.00;56.15;154098.72;5095648;28;20271;-62
2022/08/03 09:06:15;;;;;;;1.70;1.60;;;;;;;32.20;53.51;154150.13;5095505;28;20732;-62
2022/08/03 09:08:44;;;;;;;1.80;1.77;;;;;;;32.65;52.42;154264.34;5094102;28;20617;-62
2022/08/03 09:11:10;;;;;;;1.52;1.52;;;;;;;33.03;54.33;154361.91;5095811;28;20647;-62
2022/08/03 09:13:38;;;;;;;1.20;1.20;;;;;;;32.34;49.68;154186.00;5095170;28;20322;-62
2022/08/03 09:16:16;;;;;;;6.32;1.63;;;;;;;32.43;50.82;154209.13;5094549;28;20203;-62
2022/08/03 09:18:45;;;;;;;1.42;1.42;;;;;;;32.38;52.29;154195.03;5095152;28;20593;-61
2022/08/03 09:21:23;;;;;;;1.80;1.70;;;;;;;32.33;52.68;154183.47;5094981;28;20195;-62
2022/08/03 09:23:53;;;;;;;1.73;1.63;;;;;;;32.50;54.33;154227.13;5095409;28;20710;-62
2022/08/03 09:26:22;;;;;;;2.80;1.90;;;;;;;33.13;51.76;154385.03;5094704;28;20188;-62
2022/08/03 09:28:55;;;;;;;1.17;1.17;;;;;;;32.97;49.66;154346.47;5095013;28;20526;-62
2022/08/03 09:31:30;;;;;;;1.50;1.38;;;;;;;31.22;53.28;153902.44;5094914;28;20600;-63
2022/08/03 09:33:59;;;;;;;1.63;1.52;;;;;;;31.80;53.52;154047.41;5094587;28;20678;-62
2022/08/03 09:36:37;;;;;;;1.92;1.80;;;;;;;32.50;52.43;154225.81;5094616;28;20242;-62
2022/08/03 09:39:09;;;;;;;2.47;1.45;;;;;;;31.58;52.51;153993.53;5095014;28;20794;-61
2022/08/03 09:41:37;;;;;;;1.40;1.40;;;;;;;31.91;52.46;154076.91;5093338;28;20184;-62
2022/08/03 09:44:04;;;;;;;1.25;1.25;;;;;;;32.44;50.57;154210.41;5080714;28;20251;-62
2022/08/03 09:46:32;;;;;;;1.80;1.33;;;;;;;32.20;49.47;154148.81;5073943;28;20185;-62
2022/08/03 09:49:11;;;;;;;2.10;1.38;;;;;;;32.33;51.86;154182.19;5074602;28;20220;-62
2022/08/03 09:51:39;;;;;;;2.95;1.50;;;;;;;32.07;49.85;154118.00;5075047;28;20652;-63
2022/08/03 09:54:07;;;;;;;1.50;1.50;;;;;;;31.90;50.24;154074.38;5074259;28;20214;-62
2022/08/03 09:56:42;;;;;;;1.63;1.63;;;;;;;32.62;48.09;154256.66;5074281;28;20188;-62
2022/08/03 09:59:10;;;;;;;1.55;1.55;;;;;;;33.23;47.23;154412.00;5074108;28;20223;-62
2022/08/03 10:01:40;;;;;;;1.70;1.60;;;;;;;32.85;44.58;154315.69;5074219;28;20191;-62
2022/08/03 10:04:12;;;;;;;1.77;1.67;;;;;;;32.11;48.19;154127.00;5074031;28;20276;-62
2022/08/03 10:06:39;;;;;;;2.90;1.70;;;;;;;32.47;46.59;154219.38;5072926;28;20185;-62
2022/08/03 10:09:10;;;;;;;1.50;1.40;;;;;;;32.24;46.24;154159.09;5073809;28;20184;-61
2022/08/03 10:11:37;;;;;;;1.60;1.50;;;;;;;32.26;46.16;154164.19;5074301;28;20617;-62
2022/08/03 10:14:06;;;;;;;1.25;1.25;;;;;;;31.88;46.85;154069.22;5073265;28;20228;-62
2022/08/03 10:16:35;;;;;;;1.85;1.50;;;;;;;31.85;46.30;154060.25;5073682;28;20616;-61
2022/08/03 10:19:03;;;;;;;1.80;1.70;;;;;;;32.27;45.59;154166.78;5073740;28;20216;-61
2022/08/03 10:21:34;;;;;;;1.17;1.17;;;;;;;31.67;45.97;154015.34;5073236;28;20200;-61
2022/08/03 10:24:03;;;;;;;1.33;1.33;;;;;;;31.19;47.88;153894.72;5073501;28;20185;-61
2022/08/03 10:26:34;;;;;;;1.52;1.45;;;;;;;31.09;49.78;153867.81;5073243;28;20188;-61
2022/08/03 10:29:06;;;;;;;1.60;1.50;;;;;;;31.64;50.81;154008.94;5073895;28;20548;-61
2022/08/03 10:31:39;;;;;;;1.92;1.23;;;;;;;32.15;48.96;154138.56;5073235;28;20189;-61
2022/08/03 10:34:13;;;;;;;1.23;1.23;;;;;;;32.65;48.00;154263.06;5072886;28;20243;-61
2022/08/03 10:36:41;;;;;;;1.95;1.50;;;;;;;32.68;45.64;154270.75;5073070;28;20195;-61
2022/08/03 10:39:13;;;;;;;1.50;1.50;;;;;;;32.24;45.72;154160.38;5073705;28;20635;-61
2022/08/03 10:41:45;;;;;;;1.20;1.20;;;;;;;31.51;48.49;153975.53;5073325;28;20187;-62
2022/08/03 10:44:18;;;;;;;4.65;1.42;;;;;;;31.92;48.87;154079.47;5073305;28;20642;-61
2022/08/03 10:46:46;;;;;;;2.35;1.95;;;;;;;32.14;91.63;154135.97;5073033;28;20271;-62
2022/08/03 10:49:15;;;;;;;4.35;2.17;;;;;;;32.18;84.70;154146.25;5071580;28;20199;-62
2022/08/03 10:51:43;;;;;;;1.75;1.65;;;;;;;32.43;53.74;154207.81;5073017;28;20177;-62
2022/08/03 10:57:48;;;;;;;1.60;1.60;;;;;;;32.06;68.41;154114.13;5073001;28;20548;-62
2022/08/03 11:00:16;;;;;;;2.58;2.47;;;;;;;31.01;100.00;153847.31;5072582;28;20189;-61
2022/08/03 11:03:06;;;;;;;2.53;2.33;;;;;;;29.94;100.00;153576.75;5072404;28;20189;-61
2022/08/03 11:05:35;;;;;;;2.88;2.67;;;;;;;29.28;100.00;153408.81;5072909;28;20669;-61
2022/08/03 11:08:33;;;;;;;3.40;3.20;;;;;;;29.42;100.00;153446.00;5072942;28;20551;-61
2022/08/03 11:11:03;;;;;;;2.60;2.53;;;;;;;29.56;100.00;153479.31;5072375;28;20224;-61
2022/08/03 11:13:32;;;;;;;3.10;2.88;;;;;;;29.17;100.00;153381.91;5072705;28;20715;-62
2022/08/03 11:16:03;;;;;;;3.30;3.10;;;;;;;28.74;100.00;153273.03;5072604;28;20195;-61
2022/08/03 11:18:31;;;;;;;2.90;2.80;;;;;;;28.82;100.00;153293.53;5072383;28;20238;-62
2022/08/03 11:21:00;;;;;;;2.80;2.70;;;;;;;28.29;100.00;153157.78;5072833;28;20217;-60
2022/08/03 11:23:44;;;;;;;2.97;2.58;;;;;;;28.19;100.00;153132.16;5072672;28;20234;-60
2022/08/03 11:26:15;;;;;;;8.70;3.10;;;;;;;28.22;100.00;153141.13;5072599;28;20184;-64
2022/08/03 11:28:46;;;;;;;2.78;2.67;;;;;;;28.18;100.00;153130.88;5073184;28;20268;-61
2022/08/03 11:31:48;;;;;;;2.72;2.63;;;;;;;28.35;100.00;153174.41;5072549;28;20887;-62
2022/08/03 11:34:19;;;;;;;3.30;2.80;;;;;;;28.12;100.00;153116.84;5090513;28;20240;-62
2022/08/03 11:37:21;;;;;;;3.22;3.08;;;;;;;28.21;100.00;153137.31;5092398;28;20187;-63
2022/08/03 11:39:52;;;;;;;3.10;3.00;;;;;;;28.34;100.00;153171.88;5092738;28;20179;-60
2022/08/03 11:42:42;;;;;;;2.47;2.40;;;;;;;28.34;100.00;153171.88;5092130;28;20264;-62
2022/08/03 11:45:11;;;;;;;3.25;3.05;;;;;;;28.48;100.00;153206.41;5092149;28;20208;-61
2022/08/03 11:47:43;;;;;;;5.65;2.30;;;;;;;28.57;100.00;153229.47;5091149;28;20295;-62
2022/08/03 11:50:10;;;;;;;2.80;2.67;;;;;;;28.41;100.00;153188.50;5092015;28;20233;-61
2022/08/03 11:52:40;;;;;;;2.50;2.40;;;;;;;28.44;100.00;153196.16;5092491;28;20271;-60
2022/08/03 11:55:16;;;;;;;3.03;2.60;;;;;;;28.34;100.00;153171.88;5092173;28;20203;-62
2022/08/03 11:57:45;;;;;;;2.67;2.47;;;;;;;28.01;100.00;153087.31;5092505;28;20234;-61
2022/08/03 12:00:24;;;;;;;2.90;2.80;;;;;;;27.86;100.00;153050.22;5091915;28;20228;-61
2022/08/03 12:03:02;;;;;;;2.35;2.25;;;;;;;27.78;100.00;153029.75;5091925;28;20233;-61
2022/08/03 12:05:44;;;;;;;2.47;2.30;;;;;;;27.71;100.00;153011.81;5092207;28;20651;-62
2022/08/03 12:08:16;;;;;;;2.42;2.33;;;;;;;27.64;100.00;152993.91;5091672;28;20249;-61
2022/08/03 12:10:51;;;;;;;3.55;2.90;;;;;;;27.91;100.00;153061.75;5091382;28;20698;-62
2022/08/03 12:13:19;;;;;;;2.65;2.45;;;;;;;27.85;100.00;153046.38;5091882;28;20235;-61
2022/08/03 12:15:53;;;;;;;2.40;2.30;;;;;;;27.68;100.00;153005.44;5091784;28;20223;-59
2022/08/03 12:18:21;;;;;;;2.58;2.42;;;;;;;27.61;100.00;152987.53;5091926;28;20192;-61